sensor_id;sensor_type;location;lat;lon;timestamp;pressure;altitude;pressure_sealevel;temperature
64947;BMP280;51469;52.150;4.682;2023-02-15T00:01:48;103172.03;;;9.40
64947;BMP280;51469;52.150;4.682;2023-02-15T00:04:15;103172.94;;;9.36
64947;BMP280;51469;52.150;4.682;2023-02-15T00:06:41;103166.69;;;9.35
64947;BMP280;51469;52.150;4.682;2023-02-15T00:09:08;103168.91;;;9.33
64947;BMP280;51469;52.150;4.682;2023-02-15T00:11:34;103164.56;;;9.32
64947;BMP280;51469;52.150;4.682;2023-02-15T00:14:40;103165.66;;;9.31
64947;BMP280;51469;52.150;4.682;2023-02-15T00:16:59;103163.84;;;9.27
64947;BMP280;51469;52.150;4.682;2023-02-15T00:19:25;103154.31;;;9.24
64947;BMP280;51469;52.150;4.682;2023-02-15T00:21:51;103148.81;;;9.24
64947;BMP280;51469;52.150;4.682;2023-02-15T00:24:18;103148.66;;;9.21
64947;BMP280;51469;52.150;4.682;2023-02-15T00:26:44;103148.13;;;9.19
64947;BMP280;51469;52.150;4.682;2023-02-15T00:29:10;103139.72;;;9.15
64947;BMP280;51469;52.150;4.682;2023-02-15T00:31:36;103140.03;;;9.14
64947;BMP280;51469;52.150;4.682;2023-02-15T00:34:22;103133.72;;;9.13
64947;BMP280;51469;52.150;4.682;2023-02-15T00:36:48;103131.00;;;9.13
64947;BMP280;51469;52.150;4.682;2023-02-15T00:39:14;103130.78;;;9.10
64947;BMP280;51469;52.150;4.682;2023-02-15T00:41:40;103130.00;;;9.09
64947;BMP280;51469;52.150;4.682;2023-02-15T00:44:07;103138.50;;;9.08
64947;BMP280;51469;52.150;4.682;2023-02-15T00:46:32;103134.47;;;9.05
64947;BMP280;51469;52.150;4.682;2023-02-15T00:48:58;103131.22;;;9.03
64947;BMP280;51469;52.150;4.682;2023-02-15T00:51:24;103128.78;;;9.02
64947;BMP280;51469;52.150;4.682;2023-02-15T00:53:49;103130.25;;;8.99
64947;BMP280;51469;52.150;4.682;2023-02-15T00:56:15;103132.78;;;8.96
64947;BMP280;51469;52.150;4.682;2023-02-15T00:58:40;103131.94;;;8.95
64947;BMP280;51469;52.150;4.682;2023-02-15T01:01:09;103134.47;;;8.92
64947;BMP280;51469;52.150;4.682;2023-02-15T01:03:35;103130.47;;;8.89
64947;BMP280;51469;52.150;4.682;2023-02-15T01:06:02;103133.28;;;8.84
64947;BMP280;51469;52.150;4.682;2023-02-15T01:08:28;103125.59;;;8.86
64947;BMP280;51469;52.150;4.682;2023-02-15T01:10:53;103120.91;;;8.87
64947;BMP280;51469;52.150;4.682;2023-02-15T01:13:19;103116.25;;;8.87
64947;BMP280;51469;52.150;4.682;2023-02-15T01:15:44;103115.66;;;8.90
64947;BMP280;51469;52.150;4.682;2023-02-15T01:18:10;103110.78;;;8.87
64947;BMP280;51469;52.150;4.682;2023-02-15T01:20:38;103104.28;;;8.83
64947;BMP280;51469;52.150;4.682;2023-02-15T01:23:05;103103.69;;;8.86
64947;BMP280;51469;52.150;4.682;2023-02-15T01:25:33;103096.28;;;8.87
64947;BMP280;51469;52.150;4.682;2023-02-15T01:27:58;103097.09;;;8.87
64947;BMP280;51469;52.150;4.682;2023-02-15T01:30:24;103091.09;;;8.85
64947;BMP280;51469;52.150;4.682;2023-02-15T01:32:49;103100.44;;;8.84
64947;BMP280;51469;52.150;4.682;2023-02-15T01:35:15;103084.63;;;8.81
64947;BMP280;51469;52.150;4.682;2023-02-15T01:37:40;103083.63;;;8.77
64947;BMP280;51469;52.150;4.682;2023-02-15T01:40:08;103083.63;;;8.77
64947;BMP280;51469;52.150;4.682;2023-02-15T01:42:36;103091.84;;;8.77
64947;BMP280;51469;52.150;4.682;2023-02-15T01:45:04;103085.22;;;8.78
64947;BMP280;51469;52.150;4.682;2023-02-15T01:47:39;103091.31;;;8.75
64947;BMP280;51469;52.150;4.682;2023-02-15T01:50:25;103088.69;;;8.70
64947;BMP280;51469;52.150;4.682;2023-02-15T01:55:30;103091.75;;;8.69
64947;BMP280;51469;52.150;4.682;2023-02-15T01:57:58;103078.34;;;8.67
64947;BMP280;51469;52.150;4.682;2023-02-15T02:00:24;103083.00;;;8.67
64947;BMP280;51469;52.150;4.682;2023-02-15T02:02:51;103080.56;;;8.65
64947;BMP280;51469;52.150;4.682;2023-02-15T02:05:17;103078.13;;;8.64
64947;BMP280;51469;52.150;4.682;2023-02-15T02:07:44;103075.72;;;8.62
64947;BMP280;51469;52.150;4.682;2023-02-15T02:10:14;103081.19;;;8.62
64947;BMP280;51469;52.150;4.682;2023-02-15T02:12:42;103071.69;;;8.60
64947;BMP280;51469;52.150;4.682;2023-02-15T02:15:09;103073.31;;;8.61
64947;BMP280;51469;52.150;4.682;2023-02-15T02:24:11;103056.97;;;8.56
64947;BMP280;51469;52.150;4.682;2023-02-15T02:36:02;103042.09;;;8.48
64947;BMP280;51469;52.150;4.682;2023-02-15T02:38:57;103049.19;;;8.49
64947;BMP280;51469;52.150;4.682;2023-02-15T02:44:47;103026.66;;;8.52
64947;BMP280;51469;52.150;4.682;2023-02-15T02:47:24;103021.84;;;8.49
64947;BMP280;51469;52.150;4.682;2023-02-15T02:49:59;103025.69;;;8.48
64947;BMP280;51469;52.150;4.682;2023-02-15T02:52:43;103014.22;;;8.46
64947;BMP280;51469;52.150;4.682;2023-02-15T02:55:30;103014.53;;;8.45
64947;BMP280;51469;52.150;4.682;2023-02-15T03:00:44;103008.38;;;8.39
64947;BMP280;51469;52.150;4.682;2023-02-15T03:03:21;103011.72;;;8.36
64947;BMP280;51469;52.150;4.682;2023-02-15T03:05:56;103008.47;;;8.34
64947;BMP280;51469;52.150;4.682;2023-02-15T03:08:25;103009.09;;;8.31
64947;BMP280;51469;52.150;4.682;2023-02-15T03:10:55;103005.19;;;8.32
64947;BMP280;51469;52.150;4.682;2023-02-15T03:13:22;103005.19;;;8.32
64947;BMP280;51469;52.150;4.682;2023-02-15T03:15:49;103003.63;;;8.31
64947;BMP280;51469;52.150;4.682;2023-02-15T03:18:49;103009.09;;;8.31
64947;BMP280;51469;52.150;4.682;2023-02-15T03:21:21;103012.13;;;8.30
64947;BMP280;51469;52.150;4.682;2023-02-15T03:23:53;103006.84;;;8.33
64947;BMP280;51469;52.150;4.682;2023-02-15T03:26:19;103007.06;;;8.37
64947;BMP280;51469;52.150;4.682;2023-02-15T03:28:47;102998.34;;;8.35
64947;BMP280;51469;52.150;4.682;2023-02-15T03:31:16;102996.69;;;8.34
64947;BMP280;51469;52.150;4.682;2023-02-15T03:34:00;102988.78;;;8.32
64947;BMP280;51469;52.150;4.682;2023-02-15T03:37:32;102997.50;;;8.34
64947;BMP280;51469;52.150;4.682;2023-02-15T03:39:38;102981.94;;;8.35
64947;BMP280;51469;52.150;4.682;2023-02-15T03:44:41;102987.69;;;8.33
64947;BMP280;51469;52.150;4.682;2023-02-15T03:47:13;102968.88;;;8.18
64947;BMP280;51469;52.150;4.682;2023-02-15T03:50:03;102973.53;;;8.31
64947;BMP280;51469;52.150;4.682;2023-02-15T03:52:51;102972.38;;;8.32
64947;BMP280;51469;52.150;4.682;2023-02-15T03:55:16;102962.47;;;8.36
64947;BMP280;51469;52.150;4.682;2023-02-15T03:57:42;102960.63;;;8.45
64947;BMP280;51469;52.150;4.682;2023-02-15T04:00:27;102959.91;;;8.53
64947;BMP280;51469;52.150;4.682;2023-02-15T04:03:50;102961.28;;;8.64
64947;BMP280;51469;52.150;4.682;2023-02-15T04:06:13;102954.25;;;8.72
64947;BMP280;51469;52.150;4.682;2023-02-15T04:08:38;102957.09;;;8.80
64947;BMP280;51469;52.150;4.682;2023-02-15T04:11:22;102964.56;;;8.88
64947;BMP280;51469;52.150;4.682;2023-02-15T04:13:47;102949.31;;;8.96
64947;BMP280;51469;52.150;4.682;2023-02-15T04:16:13;102949.06;;;9.06
64947;BMP280;51469;52.150;4.682;2023-02-15T04:18:40;102944.13;;;9.16
64947;BMP280;51469;52.150;4.682;2023-02-15T04:21:27;102948.13;;;9.32
64947;BMP280;51469;52.150;4.682;2023-02-15T04:24:11;102942.38;;;9.43
64947;BMP280;51469;52.150;4.682;2023-02-15T04:26:56;102937.22;;;9.49
64947;BMP280;51469;52.150;4.682;2023-02-15T04:29:22;102938.03;;;9.50
64947;BMP280;51469;52.150;4.682;2023-02-15T04:31:49;102935.25;;;9.41
64947;BMP280;51469;52.150;4.682;2023-02-15T04:34:15;102934.47;;;9.49
64947;BMP280;51469;52.150;4.682;2023-02-15T04:36:41;102927.91;;;9.51
64947;BMP280;51469;52.150;4.682;2023-02-15T04:39:07;102938.22;;;9.54
64947;BMP280;51469;52.150;4.682;2023-02-15T04:41:33;102930.97;;;9.57
64947;BMP280;51469;52.150;4.682;2023-02-15T04:43:59;102934.72;;;9.62
64947;BMP280;51469;52.150;4.682;2023-02-15T04:46:26;102923.38;;;9.54
64947;BMP280;51469;52.150;4.682;2023-02-15T04:48:51;102931.53;;;9.77
64947;BMP280;51469;52.150;4.682;2023-02-15T04:51:17;102929.91;;;9.76
64947;BMP280;51469;52.150;4.682;2023-02-15T04:53:42;102930.53;;;9.73
64947;BMP280;51469;52.150;4.682;2023-02-15T04:56:07;102926.06;;;9.77
64947;BMP280;51469;52.150;4.682;2023-02-15T04:58:33;102925.25;;;9.76
64947;BMP280;51469;52.150;4.682;2023-02-15T05:00:58;102930.91;;;9.80
64947;BMP280;51469;52.150;4.682;2023-02-15T05:03:24;102920.56;;;9.77
64947;BMP280;51469;52.150;4.682;2023-02-15T05:05:50;102925.88;;;9.73
64947;BMP280;51469;52.150;4.682;2023-02-15T05:08:16;102923.09;;;9.65
64947;BMP280;51469;52.150;4.682;2023-02-15T05:10:42;102925.34;;;9.63
64947;BMP280;51469;52.150;4.682;2023-02-15T05:13:07;102925.34;;;9.63
64947;BMP280;51469;52.150;4.682;2023-02-15T05:15:33;102918.59;;;9.60
64947;BMP280;51469;52.150;4.682;2023-02-15T05:17:58;102913.06;;;9.52
64947;BMP280;51469;52.150;4.682;2023-02-15T05:20:23;102904.97;;;9.46
64947;BMP280;51469;52.150;4.682;2023-02-15T05:22:53;102916.06;;;9.41
64947;BMP280;51469;52.150;4.682;2023-02-15T05:25:18;102905.44;;;9.40
64947;BMP280;51469;52.150;4.682;2023-02-15T05:28:03;102914.16;;;9.42
64947;BMP280;51469;52.150;4.682;2023-02-15T05:30:48;102910.34;;;9.29
64947;BMP280;51469;52.150;4.682;2023-02-15T05:33:14;102912.13;;;9.25
64947;BMP280;51469;52.150;4.682;2023-02-15T05:35:40;102911.13;;;9.21
64947;BMP280;51469;52.150;4.682;2023-02-15T05:38:05;102910.47;;;9.16
64947;BMP280;51469;52.150;4.682;2023-02-15T05:40:30;102911.69;;;9.10
64947;BMP280;51469;52.150;4.682;2023-02-15T05:42:56;102922.47;;;9.06
64947;BMP280;51469;52.150;4.682;2023-02-15T05:45:22;102921.81;;;9.01
64947;BMP280;51469;52.150;4.682;2023-02-15T05:47:48;102903.28;;;8.98
64947;BMP280;51469;52.150;4.682;2023-02-15T05:50:13;102914.66;;;8.91
64947;BMP280;51469;52.150;4.682;2023-02-15T05:52:38;102911.84;;;8.83
64947;BMP280;51469;52.150;4.682;2023-02-15T05:55:04;102899.09;;;8.78
64947;BMP280;51469;52.150;4.682;2023-02-15T05:57:30;102905.19;;;8.75
64947;BMP280;51469;52.150;4.682;2023-02-15T05:59:55;102890.88;;;8.78
64947;BMP280;51469;52.150;4.682;2023-02-15T06:02:21;102895.75;;;8.81
64947;BMP280;51469;52.150;4.682;2023-02-15T06:04:46;102891.88;;;8.82
64947;BMP280;51469;52.150;4.682;2023-02-15T06:07:11;102889.13;;;8.82
64947;BMP280;51469;52.150;4.682;2023-02-15T06:09:37;102883.50;;;8.79
64947;BMP280;51469;52.150;4.682;2023-02-15T06:12:02;102886.53;;;8.77
64947;BMP280;51469;52.150;4.682;2023-02-15T06:14:27;102895.25;;;8.79
64947;BMP280;51469;52.150;4.682;2023-02-15T06:16:53;102901.03;;;8.78
64947;BMP280;51469;52.150;4.682;2023-02-15T06:19:18;102894.63;;;8.82
64947;BMP280;51469;52.150;4.682;2023-02-15T06:21:44;102897.88;;;8.84
64947;BMP280;51469;52.150;4.682;2023-02-15T06:24:10;102900.09;;;8.82
64947;BMP280;51469;52.150;4.682;2023-02-15T06:26:35;102903.34;;;8.84
64947;BMP280;51469;52.150;4.682;2023-02-15T06:29:01;102896.63;;;8.90
64947;BMP280;51469;52.150;4.682;2023-02-15T06:31:26;102894.75;;;8.99
64947;BMP280;51469;52.150;4.682;2023-02-15T06:33:52;102894.13;;;9.02
64947;BMP280;51469;52.150;4.682;2023-02-15T06:36:17;102892.47;;;9.01
64947;BMP280;51469;52.150;4.682;2023-02-15T06:38:42;102898.47;;;9.03
64947;BMP280;51469;52.150;4.682;2023-02-15T06:41:08;102904.00;;;9.12
64947;BMP280;51469;52.150;4.682;2023-02-15T06:43:33;102893.84;;;9.12
64947;BMP280;51469;52.150;4.682;2023-02-15T06:45:59;102893.75;;;9.17
64947;BMP280;51469;52.150;4.682;2023-02-15T06:48:25;102895.97;;;9.15
64947;BMP280;51469;52.150;4.682;2023-02-15T06:50:50;102889.34;;;9.16
64947;BMP280;51469;52.150;4.682;2023-02-15T06:53:16;102887.75;;;9.15
64947;BMP280;51469;52.150;4.682;2023-02-15T06:55:41;102893.59;;;9.22
64947;BMP280;51469;52.150;4.682;2023-02-15T06:58:07;102881.81;;;9.22
64947;BMP280;51469;52.150;4.682;2023-02-15T07:00:32;102887.50;;;9.25
64947;BMP280;51469;52.150;4.682;2023-02-15T07:02:58;102877.03;;;9.27
64947;BMP280;51469;52.150;4.682;2023-02-15T07:05:25;102885.84;;;9.24
64947;BMP280;51469;52.150;4.682;2023-02-15T07:07:55;102886.97;;;9.23
64947;BMP280;51469;52.150;4.682;2023-02-15T07:10:21;102882.94;;;9.21
64947;BMP280;51469;52.150;4.682;2023-02-15T07:12:46;102879.78;;;9.27
64947;BMP280;51469;52.150;4.682;2023-02-15T07:15:16;102872.00;;;9.29
64947;BMP280;51469;52.150;4.682;2023-02-15T07:17:42;102883.16;;;9.33
64947;BMP280;51469;52.150;4.682;2023-02-15T07:20:11;102877.88;;;9.36
64947;BMP280;51469;52.150;4.682;2023-02-15T07:22:37;102875.59;;;9.38
64947;BMP280;51469;52.150;4.682;2023-02-15T07:25:05;102875.59;;;9.38
64947;BMP280;51469;52.150;4.682;2023-02-15T07:27:31;102871.25;;;9.37
64947;BMP280;51469;52.150;4.682;2023-02-15T07:29:57;102864.84;;;9.42
64947;BMP280;51469;52.150;4.682;2023-02-15T07:32:22;102867.88;;;9.40
64947;BMP280;51469;52.150;4.682;2023-02-15T07:34:47;102860.19;;;9.43
64947;BMP280;51469;52.150;4.682;2023-02-15T07:37:13;102858.03;;;9.39
64947;BMP280;51469;52.150;4.682;2023-02-15T07:39:38;102858.53;;;9.41
64947;BMP280;51469;52.150;4.682;2023-02-15T07:42:03;102854.06;;;9.46
64947;BMP280;51469;52.150;4.682;2023-02-15T07:44:29;102850.16;;;9.46
64947;BMP280;51469;52.150;4.682;2023-02-15T07:46:54;102845.69;;;9.51
64947;BMP280;51469;52.150;4.682;2023-02-15T07:49:19;102847.28;;;9.52
64947;BMP280;51469;52.150;4.682;2023-02-15T07:51:45;102847.00;;;9.62
64947;BMP280;51469;52.150;4.682;2023-02-15T07:54:11;102845.25;;;9.66
64947;BMP280;51469;52.150;4.682;2023-02-15T07:56:36;102845.91;;;9.71
64947;BMP280;51469;52.150;4.682;2023-02-15T07:59:02;102832.84;;;9.77
64947;BMP280;51469;52.150;4.682;2023-02-15T08:01:32;102833.50;;;9.82
64947;BMP280;51469;52.150;4.682;2023-02-15T08:03:58;102835.63;;;9.94
64947;BMP280;51469;52.150;4.682;2023-02-15T08:06:26;102842.53;;;10.00
64947;BMP280;51469;52.150;4.682;2023-02-15T08:08:52;102836.91;;;10.05
64947;BMP280;51469;52.150;4.682;2023-02-15T08:13:55;102835.13;;;10.26
64947;BMP280;51469;52.150;4.682;2023-02-15T08:16:26;102835.31;;;10.29
64947;BMP280;51469;52.150;4.682;2023-02-15T08:18:52;102836.56;;;10.32
64947;BMP280;51469;52.150;4.682;2023-02-15T08:21:19;102834.81;;;10.36
64947;BMP280;51469;52.150;4.682;2023-02-15T08:23:44;102835.13;;;10.43
64947;BMP280;51469;52.150;4.682;2023-02-15T08:26:10;102837.06;;;10.51
64947;BMP280;51469;52.150;4.682;2023-02-15T08:28:35;102837.66;;;10.65
64947;BMP280;51469;52.150;4.682;2023-02-15T08:31:08;102832.47;;;10.72
64947;BMP280;51469;52.150;4.682;2023-02-15T08:33:35;102840.56;;;10.77
64947;BMP280;51469;52.150;4.682;2023-02-15T08:36:09;102836.97;;;10.85
64947;BMP280;51469;52.150;4.682;2023-02-15T08:38:35;102836.59;;;10.95
64947;BMP280;51469;52.150;4.682;2023-02-15T08:41:10;102834.66;;;11.04
64947;BMP280;51469;52.150;4.682;2023-02-15T08:43:36;102836.53;;;11.12
64947;BMP280;51469;52.150;4.682;2023-02-15T08:46:02;102832.00;;;11.16
64947;BMP280;51469;52.150;4.682;2023-02-15T08:48:27;102826.00;;;11.22
64947;BMP280;51469;52.150;4.682;2023-02-15T08:50:53;102828.03;;;11.34
64947;BMP280;51469;52.150;4.682;2023-02-15T08:53:18;102822.81;;;11.41
64947;BMP280;51469;52.150;4.682;2023-02-15T08:55:56;102826.53;;;11.45
64947;BMP280;51469;52.150;4.682;2023-02-15T08:58:21;102808.19;;;11.49
64947;BMP280;51469;52.150;4.682;2023-02-15T09:03:22;102831.22;;;11.73
64947;BMP280;51469;52.150;4.682;2023-02-15T09:05:48;102833.63;;;11.75
64947;BMP280;51469;52.150;4.682;2023-02-15T09:08:14;102823.97;;;11.89
64947;BMP280;51469;52.150;4.682;2023-02-15T09:10:39;102819.78;;;12.04
64947;BMP280;51469;52.150;4.682;2023-02-15T09:13:05;102828.88;;;12.16
64947;BMP280;51469;52.150;4.682;2023-02-15T09:15:30;102831.63;;;12.16
64947;BMP280;51469;52.150;4.682;2023-02-15T09:17:56;102831.31;;;12.18
64947;BMP280;51469;52.150;4.682;2023-02-15T09:20:24;102828.09;;;12.16
64947;BMP280;51469;52.150;4.682;2023-02-15T09:22:51;102819.22;;;12.31
64947;BMP280;51469;52.150;4.682;2023-02-15T09:25:17;102822.00;;;12.43
64947;BMP280;51469;52.150;4.682;2023-02-15T09:27:43;102833.25;;;12.50
64947;BMP280;51469;52.150;4.682;2023-02-15T09:30:08;102814.16;;;12.65
64947;BMP280;51469;52.150;4.682;2023-02-15T09:32:34;102811.72;;;12.76
64947;BMP280;51469;52.150;4.682;2023-02-15T09:34:59;102820.00;;;12.88
64947;BMP280;51469;52.150;4.682;2023-02-15T09:37:25;102821.28;;;12.90
64947;BMP280;51469;52.150;4.682;2023-02-15T09:39:50;102820.25;;;13.07
64947;BMP280;51469;52.150;4.682;2023-02-15T10:03:08;102805.75;;;14.13
64947;BMP280;51469;52.150;4.682;2023-02-15T10:05:59;102805.47;;;14.18
64947;BMP280;51469;52.150;4.682;2023-02-15T10:11:22;102819.81;;;14.51
64947;BMP280;51469;52.150;4.682;2023-02-15T10:17:03;102816.84;;;14.59
64947;BMP280;51469;52.150;4.682;2023-02-15T10:27:44;102825.22;;;14.63
64947;BMP280;51469;52.150;4.682;2023-02-15T10:30:13;102814.06;;;14.75
64947;BMP280;51469;52.150;4.682;2023-02-15T10:38:08;102812.63;;;15.12
64947;BMP280;51469;52.150;4.682;2023-02-15T10:41:46;102805.97;;;15.32
64947;BMP280;51469;52.150;4.682;2023-02-15T10:43:50;102798.13;;;15.34
64947;BMP280;51469;52.150;4.682;2023-02-15T10:46:55;102802.22;;;15.40
64947;BMP280;51469;52.150;4.682;2023-02-15T10:50:03;102788.75;;;15.58
64947;BMP280;51469;52.150;4.682;2023-02-15T11:03:48;102762.28;;;15.98
64947;BMP280;51469;52.150;4.682;2023-02-15T11:06:21;102764.75;;;16.03
64947;BMP280;51469;52.150;4.682;2023-02-15T11:08:57;102758.69;;;16.20
64947;BMP280;51469;52.150;4.682;2023-02-15T11:11:29;102760.03;;;16.26
64947;BMP280;51469;52.150;4.682;2023-02-15T11:14:02;102751.72;;;16.26
64947;BMP280;51469;52.150;4.682;2023-02-15T11:16:36;102748.00;;;16.41
64947;BMP280;51469;52.150;4.682;2023-02-15T11:19:17;102741.50;;;16.56
64947;BMP280;51469;52.150;4.682;2023-02-15T11:21:48;102736.69;;;16.53
64947;BMP280;51469;52.150;4.682;2023-02-15T11:24:17;102743.53;;;16.59
64947;BMP280;51469;52.150;4.682;2023-02-15T11:26:59;102736.44;;;16.62
64947;BMP280;51469;52.150;4.682;2023-02-15T11:32:44;102750.66;;;16.86
64947;BMP280;51469;52.150;4.682;2023-02-15T11:42:46;102741.13;;;17.13
64947;BMP280;51469;52.150;4.682;2023-02-15T11:45:34;102730.53;;;17.22
64947;BMP280;51469;52.150;4.682;2023-02-15T11:48:00;102732.06;;;17.16
64947;BMP280;51469;52.150;4.682;2023-02-15T11:50:29;102734.25;;;17.33
64947;BMP280;51469;52.150;4.682;2023-02-15T11:53:11;102733.94;;;17.38
64947;BMP280;51469;52.150;4.682;2023-02-15T11:55:37;102720.53;;;17.47
64947;BMP280;51469;52.150;4.682;2023-02-15T12:06:28;102707.72;;;17.72
64947;BMP280;51469;52.150;4.682;2023-02-15T12:11:42;102695.63;;;17.94
64947;BMP280;51469;52.150;4.682;2023-02-15T12:14:10;102699.22;;;17.98
64947;BMP280;51469;52.150;4.682;2023-02-15T12:16:48;102694.53;;;18.02
64947;BMP280;51469;52.150;4.682;2023-02-15T12:19:38;102694.53;;;18.09
64947;BMP280;51469;52.150;4.682;2023-02-15T12:22:20;102703.34;;;18.18
64947;BMP280;51469;52.150;4.682;2023-02-15T12:24:47;102701.38;;;18.18
64947;BMP280;51469;52.150;4.682;2023-02-15T12:27:21;102697.06;;;18.24
64947;BMP280;51469;52.150;4.682;2023-02-15T12:29:51;102698.34;;;18.37
64947;BMP280;51469;52.150;4.682;2023-02-15T12:34:50;102690.09;;;18.48
64947;BMP280;51469;52.150;4.682;2023-02-15T12:37:19;102678.28;;;18.72
64947;BMP280;51469;52.150;4.682;2023-02-15T12:39:57;102692.63;;;18.81
64947;BMP280;51469;52.150;4.682;2023-02-15T12:42:24;102695.84;;;18.90
64947;BMP280;51469;52.150;4.682;2023-02-15T12:45:01;102692.75;;;19.02
64947;BMP280;51469;52.150;4.682;2023-02-15T12:47:28;102690.00;;;19.16
64947;BMP280;51469;52.150;4.682;2023-02-15T12:52:43;102688.03;;;19.20
64947;BMP280;51469;52.150;4.682;2023-02-15T12:55:19;102686.44;;;19.26
64947;BMP280;51469;52.150;4.682;2023-02-15T12:57:45;102690.38;;;19.14
64947;BMP280;51469;52.150;4.682;2023-02-15T13:02:47;102684.81;;;19.18
64947;BMP280;51469;52.150;4.682;2023-02-15T13:05:25;102680.88;;;19.15
64947;BMP280;51469;52.150;4.682;2023-02-15T13:08:01;102669.72;;;19.26
64947;BMP280;51469;52.150;4.682;2023-02-15T13:12:56;102678.47;;;19.24
64947;BMP280;51469;52.150;4.682;2023-02-15T13:15:25;102664.97;;;19.26
64947;BMP280;51469;52.150;4.682;2023-02-15T13:17:51;102657.81;;;19.22
64947;BMP280;51469;52.150;4.682;2023-02-15T13:20:20;102660.22;;;19.27
64947;BMP280;51469;52.150;4.682;2023-02-15T13:22:50;102663.38;;;19.29
64947;BMP280;51469;52.150;4.682;2023-02-15T13:25:27;102661.03;;;19.27
64947;BMP280;51469;52.150;4.682;2023-02-15T13:28:04;102658.63;;;19.19
64947;BMP280;51469;52.150;4.682;2023-02-15T13:30:36;102657.81;;;19.25
64947;BMP280;51469;52.150;4.682;2023-02-15T13:33:17;102654.63;;;19.20
64947;BMP280;51469;52.150;4.682;2023-02-15T13:35:54;102650.66;;;19.14
64947;BMP280;51469;52.150;4.682;2023-02-15T13:41:05;102632.28;;;18.88
64947;BMP280;51469;52.150;4.682;2023-02-15T13:48:51;102633.81;;;18.75
64947;BMP280;51469;52.150;4.682;2023-02-15T13:57:04;102621.19;;;18.99
64947;BMP280;51469;52.150;4.682;2023-02-15T14:10:50;102618.06;;;19.11
64947;BMP280;51469;52.150;4.682;2023-02-15T14:13:43;102624.03;;;19.20
64947;BMP280;51469;52.150;4.682;2023-02-15T14:18:44;102620.44;;;19.16
64947;BMP280;51469;52.150;4.682;2023-02-15T14:31:43;102622.78;;;19.07
64947;BMP280;51469;52.150;4.682;2023-02-15T14:34:27;102620.44;;;19.16
64947;BMP280;51469;52.150;4.682;2023-02-15T14:36:55;102612.47;;;19.07
64947;BMP280;51469;52.150;4.682;2023-02-15T14:39:47;102622.00;;;19.13
64947;BMP280;51469;52.150;4.682;2023-02-15T14:45:30;102627.91;;;18.84
64947;BMP280;51469;52.150;4.682;2023-02-15T14:48:26;102627.84;;;18.73
64947;BMP280;51469;52.150;4.682;2023-02-15T14:50:50;102619.06;;;18.61
64947;BMP280;51469;52.150;4.682;2023-02-15T14:53:22;102615.44;;;18.50
64947;BMP280;51469;52.150;4.682;2023-02-15T14:56:18;102619.38;;;18.49
64947;BMP280;51469;52.150;4.682;2023-02-15T15:01:28;102617.38;;;18.42
64947;BMP280;51469;52.150;4.682;2023-02-15T15:03:58;102622.16;;;18.49
64947;BMP280;51469;52.150;4.682;2023-02-15T15:06:27;102621.78;;;18.50
64947;BMP280;51469;52.150;4.682;2023-02-15T15:09:19;102615.44;;;18.50
64947;BMP280;51469;52.150;4.682;2023-02-15T15:11:48;102625.03;;;18.63
64947;BMP280;51469;52.150;4.682;2023-02-15T15:17:03;102617.03;;;18.54
64947;BMP280;51469;52.150;4.682;2023-02-15T15:22:32;102612.31;;;18.62
64947;BMP280;51469;52.150;4.682;2023-02-15T15:25:00;102603.56;;;18.60
64947;BMP280;51469;52.150;4.682;2023-02-15T15:27:51;102606.75;;;18.62
64947;BMP280;51469;52.150;4.682;2023-02-15T15:49:02;102608.22;;;18.42
64947;BMP280;51469;52.150;4.682;2023-02-15T15:51:32;102597.09;;;18.42
64947;BMP280;51469;52.150;4.682;2023-02-15T15:54:00;102593.09;;;18.32
64947;BMP280;51469;52.150;4.682;2023-02-15T15:56:32;102594.25;;;18.28
64947;BMP280;51469;52.150;4.682;2023-02-15T15:59:13;102587.00;;;18.06
64947;BMP280;51469;52.150;4.682;2023-02-15T16:01:43;102595.69;;;18.04
64947;BMP280;51469;52.150;4.682;2023-02-15T16:04:13;102592.09;;;17.97
64947;BMP280;51469;52.150;4.682;2023-02-15T16:06:39;102593.63;;;17.91
64947;BMP280;51469;52.150;4.682;2023-02-15T16:09:25;102582.44;;;17.80
64947;BMP280;51469;52.150;4.682;2023-02-15T16:11:56;102575.22;;;17.69
64947;BMP280;51469;52.150;4.682;2023-02-15T16:14:46;102569.25;;;17.67
64947;BMP280;51469;52.150;4.682;2023-02-15T16:17:24;102574.31;;;17.58
64947;BMP280;51469;52.150;4.682;2023-02-15T16:19:51;102574.69;;;17.50
64947;BMP280;51469;52.150;4.682;2023-02-15T16:22:23;102569.50;;;17.48
64947;BMP280;51469;52.150;4.682;2023-02-15T16:27:36;102576.16;;;17.40
64947;BMP280;51469;52.150;4.682;2023-02-15T16:30:26;102570.53;;;17.33
64947;BMP280;51469;52.150;4.682;2023-02-15T16:33:07;102573.16;;;17.19
64947;BMP280;51469;52.150;4.682;2023-02-15T16:35:34;102575.03;;;17.08
64947;BMP280;51469;52.150;4.682;2023-02-15T16:38:01;102565.03;;;16.97
64947;BMP280;51469;52.150;4.682;2023-02-15T16:40:33;102569.69;;;16.92
64947;BMP280;51469;52.150;4.682;2023-02-15T16:43:04;102579.03;;;16.77
64947;BMP280;51469;52.150;4.682;2023-02-15T16:45:31;102581.34;;;16.72
64947;BMP280;51469;52.150;4.682;2023-02-15T16:48:00;102584.38;;;16.60
64947;BMP280;51469;52.150;4.682;2023-02-15T16:50:32;102585.13;;;16.57
64947;BMP280;51469;52.150;4.682;2023-02-15T16:52:59;102577.91;;;16.49
64947;BMP280;51469;52.150;4.682;2023-02-15T16:55:27;102583.78;;;16.44
64947;BMP280;51469;52.150;4.682;2023-02-15T16:58:00;102576.22;;;16.41
64947;BMP280;51469;52.150;4.682;2023-02-15T17:00:31;102574.16;;;16.38
64947;BMP280;51469;52.150;4.682;2023-02-15T17:03:04;102580.03;;;16.33
64947;BMP280;51469;52.150;4.682;2023-02-15T17:05:42;102579.16;;;16.26
64947;BMP280;51469;52.150;4.682;2023-02-15T17:11:16;102580.25;;;16.21
64947;BMP280;51469;52.150;4.682;2023-02-15T17:19:26;102597.97;;;16.13
64947;BMP280;51469;52.150;4.682;2023-02-15T17:22:04;102592.28;;;16.06
64947;BMP280;51469;52.150;4.682;2023-02-15T17:24:44;102590.59;;;15.98
64947;BMP280;51469;52.150;4.682;2023-02-15T17:27:23;102594.41;;;15.90
64947;BMP280;51469;52.150;4.682;2023-02-15T17:29:51;102603.09;;;15.89
64947;BMP280;51469;52.150;4.682;2023-02-15T17:32:25;102600.63;;;15.84
64947;BMP280;51469;52.150;4.682;2023-02-15T17:37:43;102592.69;;;15.82
64947;BMP280;51469;52.150;4.682;2023-02-15T17:40:27;102589.50;;;15.80
64947;BMP280;51469;52.150;4.682;2023-02-15T17:42:52;102590.22;;;15.77